sensor_id;sensor_type;location;lat;lon;timestamp;pressure;altitude;pressure_sealevel;temperature;humidity
24045;BME280;26257;49.442;8.422;2022-12-20T00:01:08;100948.69;;;9.35;82.43
24045;BME280;26257;49.442;8.422;2022-12-20T00:03:34;100944.09;;;9.65;81.37
24045;BME280;26257;49.442;8.422;2022-12-20T00:05:59;100934.25;;;9.17;83.29
24045;BME280;26257;49.442;8.422;2022-12-20T00:08:25;100928.69;;;9.43;82.58
24045;BME280;26257;49.442;8.422;2022-12-20T00:10:50;100923.50;;;9.47;81.97
24045;BME280;26257;49.442;8.422;2022-12-20T00:13:15;100909.16;;;9.36;83.30
24045;BME280;26257;49.442;8.422;2022-12-20T00:15:41;100911.44;;;9.19;84.30
24045;BME280;26257;49.442;8.422;2022-12-20T00:18:06;100900.31;;;9.32;84.05
24045;BME280;26257;49.442;8.422;2022-12-20T00:20:32;100906.44;;;9.31;84.43
24045;BME280;26257;49.442;8.422;2022-12-20T00:22:58;100910.16;;;9.40;83.99
24045;BME280;26257;49.442;8.422;2022-12-20T00:25:24;100906.38;;;9.28;85.23
24045;BME280;26257;49.442;8.422;2022-12-20T00:27:50;100912.19;;;9.14;86.73
24045;BME280;26257;49.442;8.422;2022-12-20T00:30:16;100908.91;;;9.22;86.42
24045;BME280;26257;49.442;8.422;2022-12-20T00:32:43;100908.31;;;9.36;86.03
24045;BME280;26257;49.442;8.422;2022-12-20T00:35:09;100900.59;;;9.45;85.56
24045;BME280;26257;49.442;8.422;2022-12-20T00:37:34;100906.53;;;9.35;85.65
24045;BME280;26257;49.442;8.422;2022-12-20T00:40:00;100904.25;;;9.51;85.60
24045;BME280;26257;49.442;8.422;2022-12-20T00:42:25;100891.34;;;9.65;84.53
24045;BME280;26257;49.442;8.422;2022-12-20T00:44:51;100894.38;;;9.84;83.05
24045;BME280;26257;49.442;8.422;2022-12-20T00:47:17;100893.56;;;9.87;82.66
24045;BME280;26257;49.442;8.422;2022-12-20T00:49:43;100901.06;;;9.67;83.89
24045;BME280;26257;49.442;8.422;2022-12-20T00:52:08;100905.41;;;9.64;84.51
24045;BME280;26257;49.442;8.422;2022-12-20T00:54:34;100892.13;;;9.59;84.99
24045;BME280;26257;49.442;8.422;2022-12-20T00:57:00;100903.00;;;9.76;83.60
24045;BME280;26257;49.442;8.422;2022-12-20T00:59:25;100905.13;;;9.93;82.98
24045;BME280;26257;49.442;8.422;2022-12-20T01:01:52;100893.72;;;9.96;82.56
24045;BME280;26257;49.442;8.422;2022-12-20T01:04:18;100910.78;;;9.70;83.76
24045;BME280;26257;49.442;8.422;2022-12-20T01:06:43;100903.06;;;10.22;81.44
24045;BME280;26257;49.442;8.422;2022-12-20T01:09:10;100902.19;;;9.78;81.82
24045;BME280;26257;49.442;8.422;2022-12-20T01:11:36;100911.56;;;10.06;82.44
24045;BME280;26257;49.442;8.422;2022-12-20T01:14:07;100909.75;;;10.05;80.82
24045;BME280;26257;49.442;8.422;2022-12-20T01:16:51;100921.41;;;9.73;81.62
24045;BME280;26257;49.442;8.422;2022-12-20T01:19:17;100901.88;;;9.65;83.18
24045;BME280;26257;49.442;8.422;2022-12-20T01:21:42;100904.91;;;9.83;81.46
24045;BME280;26257;49.442;8.422;2022-12-20T01:24:16;100896.88;;;9.77;81.21
24045;BME280;26257;49.442;8.422;2022-12-20T01:26:42;100893.56;;;9.87;80.95
24045;BME280;26257;49.442;8.422;2022-12-20T01:29:08;100888.63;;;10.05;79.52
24045;BME280;26257;49.442;8.422;2022-12-20T01:31:34;100899.38;;;9.69;81.58
24045;BME280;26257;49.442;8.422;2022-12-20T01:34:00;100895.09;;;9.76;81.90
24045;BME280;26257;49.442;8.422;2022-12-20T01:36:31;100902.03;;;9.71;82.01
24045;BME280;26257;49.442;8.422;2022-12-20T01:39:03;100908.88;;;9.63;82.12
24045;BME280;26257;49.442;8.422;2022-12-20T01:41:31;100900.59;;;9.86;81.41
24045;BME280;26257;49.442;8.422;2022-12-20T01:44:03;100892.97;;;10.02;80.50
24045;BME280;26257;49.442;8.422;2022-12-20T01:46:31;100894.59;;;9.95;80.82
24045;BME280;26257;49.442;8.422;2022-12-20T01:51:31;100870.16;;;10.05;80.29
24045;BME280;26257;49.442;8.422;2022-12-20T01:54:04;100873.88;;;10.13;79.22
24045;BME280;26257;49.442;8.422;2022-12-20T01:56:31;100877.78;;;9.90;80.41
24045;BME280;26257;49.442;8.422;2022-12-20T01:58:57;100876.22;;;10.01;80.01
24045;BME280;26257;49.442;8.422;2022-12-20T02:01:24;100861.97;;;9.90;81.56
24045;BME280;26257;49.442;8.422;2022-12-20T02:03:51;100861.47;;;10.11;79.98
24045;BME280;26257;49.442;8.422;2022-12-20T02:06:19;100868.59;;;10.13;79.95
24045;BME280;26257;49.442;8.422;2022-12-20T02:08:46;100867.25;;;9.90;81.60
24045;BME280;26257;49.442;8.422;2022-12-20T02:14:10;100857.16;;;9.69;83.94
24045;BME280;26257;49.442;8.422;2022-12-20T02:16:52;100843.13;;;9.72;84.76
24045;BME280;26257;49.442;8.422;2022-12-20T02:19:53;100852.03;;;9.78;85.29
24045;BME280;26257;49.442;8.422;2022-12-20T02:25:20;100828.03;;;10.11;83.25
24045;BME280;26257;49.442;8.422;2022-12-20T02:30:37;100821.28;;;10.25;81.67
24045;BME280;26257;49.442;8.422;2022-12-20T02:33:15;100818.69;;;10.30;81.42
24045;BME280;26257;49.442;8.422;2022-12-20T02:35:43;100808.78;;;10.14;82.59
24045;BME280;26257;49.442;8.422;2022-12-20T02:38:28;100812.44;;;10.22;83.44
24045;BME280;26257;49.442;8.422;2022-12-20T02:43:43;100811.84;;;10.39;82.53
24045;BME280;26257;49.442;8.422;2022-12-20T02:46:28;100814.44;;;10.38;83.13
24045;BME280;26257;49.442;8.422;2022-12-20T03:09:04;100806.72;;;9.54;100.00
24045;BME280;26257;49.442;8.422;2022-12-20T03:11:30;100800.88;;;9.70;96.77
24045;BME280;26257;49.442;8.422;2022-12-20T03:13:55;100796.38;;;9.65;94.76
24045;BME280;26257;49.442;8.422;2022-12-20T03:16:21;100791.28;;;9.74;92.72
24045;BME280;26257;49.442;8.422;2022-12-20T03:18:46;100809.56;;;9.65;92.77
24045;BME280;26257;49.442;8.422;2022-12-20T03:21:12;100799.75;;;9.58;91.68
24045;BME280;26257;49.442;8.422;2022-12-20T03:23:38;100803.78;;;9.39;92.93
24045;BME280;26257;49.442;8.422;2022-12-20T03:26:03;100795.78;;;9.35;93.38
24045;BME280;26257;49.442;8.422;2022-12-20T03:28:29;100798.69;;;9.93;89.48
24045;BME280;26257;49.442;8.422;2022-12-20T03:30:54;100815.78;;;9.67;90.03
24045;BME280;26257;49.442;8.422;2022-12-20T03:33:20;100798.41;;;9.35;92.15
24045;BME280;26257;49.442;8.422;2022-12-20T03:35:46;100800.97;;;9.31;93.52
24045;BME280;26257;49.442;8.422;2022-12-20T03:38:11;100794.72;;;9.26;94.80
24045;BME280;26257;49.442;8.422;2022-12-20T03:40:37;100793.59;;;9.57;93.33
24045;BME280;26257;49.442;8.422;2022-12-20T03:43:03;100785.97;;;9.27;94.93
24045;BME280;26257;49.442;8.422;2022-12-20T03:45:28;100771.78;;;9.66;94.33
24045;BME280;26257;49.442;8.422;2022-12-20T03:47:54;100777.19;;;9.72;93.14
24045;BME280;26257;49.442;8.422;2022-12-20T03:50:20;100773.56;;;9.67;93.16
24045;BME280;26257;49.442;8.422;2022-12-20T03:52:45;100770.31;;;9.80;93.06
24045;BME280;26257;49.442;8.422;2022-12-20T03:55:11;100772.72;;;10.17;88.90
24045;BME280;26257;49.442;8.422;2022-12-20T03:57:37;100774.63;;;10.24;87.91
24045;BME280;26257;49.442;8.422;2022-12-20T04:00:03;100785.19;;;10.24;88.82
24045;BME280;26257;49.442;8.422;2022-12-20T04:02:28;100783.41;;;10.23;88.01
24045;BME280;26257;49.442;8.422;2022-12-20T04:04:54;100779.38;;;9.96;90.90
24045;BME280;26257;49.442;8.422;2022-12-20T04:07:19;100773.56;;;10.15;89.75
24045;BME280;26257;49.442;8.422;2022-12-20T04:09:44;100777.56;;;9.93;91.70
24045;BME280;26257;49.442;8.422;2022-12-20T04:12:10;100768.31;;;9.70;94.20
24045;BME280;26257;49.442;8.422;2022-12-20T04:14:35;100766.63;;;9.72;94.48
24045;BME280;26257;49.442;8.422;2022-12-20T04:17:02;100762.31;;;9.77;96.10
24045;BME280;26257;49.442;8.422;2022-12-20T04:19:27;100754.28;;;9.71;95.92
24045;BME280;26257;49.442;8.422;2022-12-20T04:21:53;100765.78;;;9.74;96.58
24045;BME280;26257;49.442;8.422;2022-12-20T04:24:20;100744.00;;;9.86;96.12
24045;BME280;26257;49.442;8.422;2022-12-20T04:26:45;100749.22;;;9.83;95.55
24045;BME280;26257;49.442;8.422;2022-12-20T04:29:11;100754.28;;;9.71;95.52
24045;BME280;26257;49.442;8.422;2022-12-20T04:31:36;100757.25;;;9.87;95.89
24045;BME280;26257;49.442;8.422;2022-12-20T04:34:02;100768.28;;;9.67;97.81
24045;BME280;26257;49.442;8.422;2022-12-20T04:36:27;100770.25;;;9.77;97.27
24045;BME280;26257;49.442;8.422;2022-12-20T04:38:53;100769.84;;;9.56;97.76
24045;BME280;26257;49.442;8.422;2022-12-20T04:41:19;100759.69;;;9.77;97.67
24045;BME280;26257;49.442;8.422;2022-12-20T04:43:52;100748.13;;;9.70;98.62
24045;BME280;26257;49.442;8.422;2022-12-20T04:46:18;100751.91;;;9.86;97.27
24045;BME280;26257;49.442;8.422;2022-12-20T04:48:44;100748.34;;;9.82;96.65
24045;BME280;26257;49.442;8.422;2022-12-20T04:51:09;100740.72;;;9.99;95.15
24045;BME280;26257;49.442;8.422;2022-12-20T04:53:35;100742.03;;;10.24;93.49
24045;BME280;26257;49.442;8.422;2022-12-20T04:56:18;100749.47;;;9.97;94.38
24045;BME280;26257;49.442;8.422;2022-12-20T04:58:45;100749.97;;;10.25;93.68
24045;BME280;26257;49.442;8.422;2022-12-20T05:01:11;100750.41;;;10.00;95.53
24045;BME280;26257;49.442;8.422;2022-12-20T05:03:37;100744.63;;;10.21;94.73
24045;BME280;26257;49.442;8.422;2022-12-20T05:06:02;100745.25;;;10.06;95.23
24045;BME280;26257;49.442;8.422;2022-12-20T05:08:28;100755.19;;;10.19;93.09
24045;BME280;26257;49.442;8.422;2022-12-20T05:10:53;100747.00;;;10.07;95.08
24045;BME280;26257;49.442;8.422;2022-12-20T05:13:19;100755.50;;;10.40;92.26
24045;BME280;26257;49.442;8.422;2022-12-20T05:15:44;100752.94;;;10.45;90.87
24045;BME280;26257;49.442;8.422;2022-12-20T05:18:10;100756.09;;;10.21;92.98
24045;BME280;26257;49.442;8.422;2022-12-20T05:20:35;100744.88;;;10.34;92.11
24045;BME280;26257;49.442;8.422;2022-12-20T05:23:01;100748.22;;;10.24;92.30
24045;BME280;26257;49.442;8.422;2022-12-20T05:25:46;100736.88;;;10.31;92.49
24045;BME280;26257;49.442;8.422;2022-12-20T05:28:28;100734.03;;;10.18;92.47
24045;BME280;26257;49.442;8.422;2022-12-20T05:30:54;100739.34;;;10.19;93.69
24045;BME280;26257;49.442;8.422;2022-12-20T05:33:19;100741.72;;;10.07;93.94
24045;BME280;26257;49.442;8.422;2022-12-20T05:35:45;100742.94;;;10.24;93.78
24045;BME280;26257;49.442;8.422;2022-12-20T05:38:10;100735.72;;;10.14;93.88
24045;BME280;26257;49.442;8.422;2022-12-20T05:40:36;100732.78;;;9.99;94.80
24045;BME280;26257;49.442;8.422;2022-12-20T05:43:02;100738.19;;;10.04;94.80
24045;BME280;26257;49.442;8.422;2022-12-20T05:45:27;100729.69;;;10.23;93.83
24045;BME280;26257;49.442;8.422;2022-12-20T05:47:53;100723.63;;;10.30;93.18
24045;BME280;26257;49.442;8.422;2022-12-20T05:50:18;100722.63;;;10.20;93.05
24045;BME280;26257;49.442;8.422;2022-12-20T05:52:44;100729.59;;;10.17;93.71
24045;BME280;26257;49.442;8.422;2022-12-20T05:55:09;100719.13;;;10.21;92.64
24045;BME280;26257;49.442;8.422;2022-12-20T05:57:35;100711.28;;;10.27;93.12
24045;BME280;26257;49.442;8.422;2022-12-20T06:00:01;100719.19;;;10.24;92.68
24045;BME280;26257;49.442;8.422;2022-12-20T06:02:26;100723.81;;;10.40;91.64
24045;BME280;26257;49.442;8.422;2022-12-20T06:04:52;100719.41;;;10.39;91.87
24045;BME280;26257;49.442;8.422;2022-12-20T06:07:17;100721.94;;;10.33;91.94
24045;BME280;26257;49.442;8.422;2022-12-20T06:09:43;100725.25;;;10.20;91.86
24045;BME280;26257;49.442;8.422;2022-12-20T06:12:09;100711.69;;;9.99;94.30
24045;BME280;26257;49.442;8.422;2022-12-20T06:14:34;100709.69;;;10.37;92.13
24045;BME280;26257;49.442;8.422;2022-12-20T06:17:00;100703.34;;;10.26;91.70
24045;BME280;26257;49.442;8.422;2022-12-20T06:19:26;100709.19;;;10.08;94.08
24045;BME280;26257;49.442;8.422;2022-12-20T06:21:51;100705.19;;;10.31;92.54
24045;BME280;26257;49.442;8.422;2022-12-20T06:24:16;100705.97;;;10.24;92.44
24045;BME280;26257;49.442;8.422;2022-12-20T06:26:42;100694.53;;;10.25;92.97
24045;BME280;26257;49.442;8.422;2022-12-20T06:29:08;100703.19;;;10.15;93.74
24045;BME280;26257;49.442;8.422;2022-12-20T06:31:38;100690.03;;;10.18;93.71
24045;BME280;26257;49.442;8.422;2022-12-20T06:34:04;100679.44;;;10.15;93.51
24045;BME280;26257;49.442;8.422;2022-12-20T06:36:29;100677.75;;;10.20;93.63
24045;BME280;26257;49.442;8.422;2022-12-20T06:38:55;100679.69;;;10.32;92.55
24045;BME280;26257;49.442;8.422;2022-12-20T06:41:20;100681.38;;;10.28;92.56
24045;BME280;26257;49.442;8.422;2022-12-20T06:43:46;100681.38;;;10.28;92.84
24045;BME280;26257;49.442;8.422;2022-12-20T06:46:11;100670.13;;;10.43;90.83
24045;BME280;26257;49.442;8.422;2022-12-20T06:48:37;100665.59;;;10.31;91.85
24045;BME280;26257;49.442;8.422;2022-12-20T06:51:02;100681.75;;;10.52;91.03
24045;BME280;26257;49.442;8.422;2022-12-20T06:53:28;100670.78;;;10.25;92.08
24045;BME280;26257;49.442;8.422;2022-12-20T06:55:53;100672.66;;;10.32;92.29
24045;BME280;26257;49.442;8.422;2022-12-20T06:58:19;100683.25;;;10.35;92.05
24045;BME280;26257;49.442;8.422;2022-12-20T07:00:45;100688.28;;;10.20;93.95
24045;BME280;26257;49.442;8.422;2022-12-20T07:03:10;100684.28;;;10.45;92.54
24045;BME280;26257;49.442;8.422;2022-12-20T07:05:36;100675.56;;;10.50;91.69
24045;BME280;26257;49.442;8.422;2022-12-20T07:08:01;100681.69;;;10.49;91.32
24045;BME280;26257;49.442;8.422;2022-12-20T07:10:29;100680.75;;;10.44;95.28
24045;BME280;26257;49.442;8.422;2022-12-20T07:12:54;100685.63;;;10.79;92.07
24045;BME280;26257;49.442;8.422;2022-12-20T07:15:20;100685.47;;;10.70;91.29
24045;BME280;26257;49.442;8.422;2022-12-20T07:17:46;100689.06;;;10.75;90.39
24045;BME280;26257;49.442;8.422;2022-12-20T07:20:11;100683.47;;;11.21;87.54
24045;BME280;26257;49.442;8.422;2022-12-20T07:22:37;100686.81;;;11.06;86.97
24045;BME280;26257;49.442;8.422;2022-12-20T07:25:03;100679.84;;;11.11;86.41
24045;BME280;26257;49.442;8.422;2022-12-20T07:27:28;100670.06;;;11.06;86.53
24045;BME280;26257;49.442;8.422;2022-12-20T07:29:54;100672.06;;;11.25;85.10
24045;BME280;26257;49.442;8.422;2022-12-20T07:32:19;100662.38;;;11.26;85.18
24045;BME280;26257;49.442;8.422;2022-12-20T07:34:44;100674.50;;;11.08;84.80
24045;BME280;26257;49.442;8.422;2022-12-20T07:37:10;100683.56;;;11.30;83.98
24045;BME280;26257;49.442;8.422;2022-12-20T07:39:35;100697.69;;;11.32;84.20
24045;BME280;26257;49.442;8.422;2022-12-20T07:42:01;100693.22;;;11.27;83.92
24045;BME280;26257;49.442;8.422;2022-12-20T07:44:26;100673.56;;;11.03;85.93
24045;BME280;26257;49.442;8.422;2022-12-20T07:46:52;100676.56;;;11.34;83.64
24045;BME280;26257;49.442;8.422;2022-12-20T07:49:17;100684.28;;;11.14;84.07
24045;BME280;26257;49.442;8.422;2022-12-20T07:51:47;100682.22;;;10.89;85.04
24045;BME280;26257;49.442;8.422;2022-12-20T07:54:18;100686.22;;;11.30;82.76
24045;BME280;26257;49.442;8.422;2022-12-20T07:56:48;100672.09;;;11.28;82.92
24045;BME280;26257;49.442;8.422;2022-12-20T07:59:20;100668.91;;;10.81;85.02
24045;BME280;26257;49.442;8.422;2022-12-20T08:01:46;100666.31;;;10.86;85.40
24045;BME280;26257;49.442;8.422;2022-12-20T08:04:19;100674.09;;;10.74;85.94
24045;BME280;26257;49.442;8.422;2022-12-20T08:06:45;100664.47;;;10.80;87.05
24045;BME280;26257;49.442;8.422;2022-12-20T08:09:13;100662.09;;;11.00;85.28
24045;BME280;26257;49.442;8.422;2022-12-20T08:11:41;100660.59;;;10.52;88.21
24045;BME280;26257;49.442;8.422;2022-12-20T08:14:08;100661.03;;;10.84;86.72
24045;BME280;26257;49.442;8.422;2022-12-20T08:16:34;100650.00;;;10.49;88.28
24045;BME280;26257;49.442;8.422;2022-12-20T08:18:59;100645.75;;;10.62;88.41
24045;BME280;26257;49.442;8.422;2022-12-20T08:21:25;100650.19;;;10.65;88.50
24045;BME280;26257;49.442;8.422;2022-12-20T08:23:51;100650.09;;;10.57;88.49
24045;BME280;26257;49.442;8.422;2022-12-20T08:26:17;100637.88;;;10.64;88.04
24045;BME280;26257;49.442;8.422;2022-12-20T08:28:42;100639.66;;;10.68;86.67
24045;BME280;26257;49.442;8.422;2022-12-20T08:31:09;100648.75;;;10.91;86.54
24045;BME280;26257;49.442;8.422;2022-12-20T08:33:36;100652.13;;;10.78;87.86
24045;BME280;26257;49.442;8.422;2022-12-20T08:36:04;100650.31;;;10.74;86.96
24045;BME280;26257;49.442;8.422;2022-12-20T08:38:30;100655.81;;;10.92;87.59
24045;BME280;26257;49.442;8.422;2022-12-20T08:41:12;100652.63;;;11.20;85.06
24045;BME280;26257;49.442;8.422;2022-12-20T08:43:39;100648.88;;;11.03;85.15
24045;BME280;26257;49.442;8.422;2022-12-20T08:46:06;100645.41;;;11.07;85.33
24045;BME280;26257;49.442;8.422;2022-12-20T08:48:32;100654.44;;;11.27;83.81
24045;BME280;26257;49.442;8.422;2022-12-20T09:08:51;100643.47;;;10.91;99.61
24045;BME280;26257;49.442;8.422;2022-12-20T09:11:19;100634.06;;;11.17;91.86
24045;BME280;26257;49.442;8.422;2022-12-20T09:13:47;100628.13;;;11.42;87.28
24045;BME280;26257;49.442;8.422;2022-12-20T09:16:16;100635.19;;;11.40;87.41
24045;BME280;26257;49.442;8.422;2022-12-20T09:18:50;100625.66;;;11.60;85.80
24045;BME280;26257;49.442;8.422;2022-12-20T09:21:17;100619.66;;;11.76;83.90
24045;BME280;26257;49.442;8.422;2022-12-20T09:23:43;100619.59;;;11.69;83.17
24045;BME280;26257;49.442;8.422;2022-12-20T09:26:14;100623.31;;;11.91;82.79
24045;BME280;26257;49.442;8.422;2022-12-20T09:28:40;100621.66;;;12.08;81.55
24045;BME280;26257;49.442;8.422;2022-12-20T09:31:09;100604.97;;;12.24;80.01
24045;BME280;26257;49.442;8.422;2022-12-20T09:33:36;100612.03;;;12.17;79.98
24045;BME280;26257;49.442;8.422;2022-12-20T09:36:02;100623.53;;;12.27;79.75
24045;BME280;26257;49.442;8.422;2022-12-20T09:41:04;100616.44;;;12.20;80.13
24045;BME280;26257;49.442;8.422;2022-12-20T09:43:32;100611.25;;;12.41;78.59
24045;BME280;26257;49.442;8.422;2022-12-20T09:46:00;100623.78;;;12.69;76.74
24045;BME280;26257;49.442;8.422;2022-12-20T09:48:34;100606.94;;;12.61;77.09
24045;BME280;26257;49.442;8.422;2022-12-20T09:51:19;100604.31;;;12.64;76.36
24045;BME280;26257;49.442;8.422;2022-12-20T09:56:32;100607.84;;;12.62;76.09
24045;BME280;26257;49.442;8.422;2022-12-20T10:01:33;100583.97;;;12.59;75.82
24045;BME280;26257;49.442;8.422;2022-12-20T10:04:03;100586.69;;;12.78;75.21
24045;BME280;26257;49.442;8.422;2022-12-20T10:06:42;100589.38;;;12.87;74.85
24045;BME280;26257;49.442;8.422;2022-12-20T10:20:21;100579.53;;;12.55;76.79
24045;BME280;26257;49.442;8.422;2022-12-20T10:22:55;100588.22;;;12.28;77.22
24045;BME280;26257;49.442;8.422;2022-12-20T10:25:28;100590.13;;;12.55;77.46
24045;BME280;26257;49.442;8.422;2022-12-20T10:27:55;100597.00;;;12.15;78.09
24045;BME280;26257;49.442;8.422;2022-12-20T10:30:23;100596.09;;;12.16;78.56
24045;BME280;26257;49.442;8.422;2022-12-20T10:32:51;100582.16;;;12.55;77.26
24045;BME280;26257;49.442;8.422;2022-12-20T10:35:29;100601.53;;;12.40;77.16
24045;BME280;26257;49.442;8.422;2022-12-20T10:38:07;100582.28;;;12.77;75.19
24045;BME280;26257;49.442;8.422;2022-12-20T10:41:10;100583.09;;;12.61;75.56
24045;BME280;26257;49.442;8.422;2022-12-20T10:43:41;100576.94;;;12.67;76.29
24045;BME280;26257;49.442;8.422;2022-12-20T10:46:09;100569.94;;;12.90;74.97
24045;BME280;26257;49.442;8.422;2022-12-20T10:48:36;100571.53;;;12.38;77.32
24045;BME280;26257;49.442;8.422;2022-12-20T10:51:03;100570.59;;;12.31;77.79
24045;BME280;26257;49.442;8.422;2022-12-20T10:53:59;100558.22;;;12.32;78.76
24045;BME280;26257;49.442;8.422;2022-12-20T10:56:33;100553.81;;;12.32;77.77
24045;BME280;26257;49.442;8.422;2022-12-20T10:59:56;100544.19;;;12.57;77.27
24045;BME280;26257;49.442;8.422;2022-12-20T11:02:29;100532.69;;;12.46;77.32
24045;BME280;26257;49.442;8.422;2022-12-20T11:11:56;100534.44;;;12.43;77.66
24045;BME280;26257;49.442;8.422;2022-12-20T12:01:10;100457.53;;;12.17;81.48
24045;BME280;26257;49.442;8.422;2022-12-20T12:04:02;100462.81;;;12.17;81.16
24045;BME280;26257;49.442;8.422;2022-12-20T12:06:37;100468.13;;;12.26;80.41
24045;BME280;26257;49.442;8.422;2022-12-20T12:12:08;100450.47;;;12.22;80.30
24045;BME280;26257;49.442;8.422;2022-12-20T12:18:06;100459.28;;;12.15;81.40
24045;BME280;26257;49.442;8.422;2022-12-20T12:26:19;100450.56;;;12.55;79.86
24045;BME280;26257;49.442;8.422;2022-12-20T12:29:03;100452.25;;;12.29;80.91
24045;BME280;26257;49.442;8.422;2022-12-20T12:31:39;100444.31;;;12.33;80.23
24045;BME280;26257;49.442;8.422;2022-12-20T12:34:07;100432.81;;;12.19;81.70
24045;BME280;26257;49.442;8.422;2022-12-20T12:36:43;100422.28;;;12.48;80.65
24045;BME280;26257;49.442;8.422;2022-12-20T12:46:48;100388.72;;;12.80;78.54
24045;BME280;26257;49.442;8.422;2022-12-20T12:49:19;100383.44;;;12.88;76.98
24045;BME280;26257;49.442;8.422;2022-12-20T12:51:53;100384.34;;;12.82;77.46
24045;BME280;26257;49.442;8.422;2022-12-20T12:54:36;100394.03;;;12.98;77.08
24045;BME280;26257;49.442;8.422;2022-12-20T13:17:59;100370.97;;;13.55;73.76
24045;BME280;26257;49.442;8.422;2022-12-20T13:20:31;100366.59;;;13.39;73.89
24045;BME280;26257;49.442;8.422;2022-12-20T13:25:40;100380.75;;;13.27;75.02
24045;BME280;26257;49.442;8.422;2022-12-20T13:31:32;100369.13;;;13.78;72.02
24045;BME280;26257;49.442;8.422;2022-12-20T13:36:28;100383.34;;;13.59;73.02
24045;BME280;26257;49.442;8.422;2022-12-20T13:38:53;100385.19;;;13.33;72.75
24045;BME280;26257;49.442;8.422;2022-12-20T13:47:39;100366.50;;;13.74;72.17
24045;BME280;26257;49.442;8.422;2022-12-20T13:50:28;100369.22;;;13.48;73.15
24045;BME280;26257;49.442;8.422;2022-12-20T13:52:55;100349.84;;;13.00;75.20
24045;BME280;26257;49.442;8.422;2022-12-20T13:55:39;100352.50;;;13.05;74.82
24045;BME280;26257;49.442;8.422;2022-12-20T13:58:24;100353.38;;;13.27;74.31
24045;BME280;26257;49.442;8.422;2022-12-20T14:00:51;100353.38;;;13.21;74.49
24045;BME280;26257;49.442;8.422;2022-12-20T14:03:23;100355.16;;;13.07;75.25
24045;BME280;26257;49.442;8.422;2022-12-20T14:05:55;100371.06;;;12.88;75.70
24045;BME280;26257;49.442;8.422;2022-12-20T14:08:25;100360.47;;;13.16;75.66
24045;BME280;26257;49.442;8.422;2022-12-20T14:10:52;100374.59;;;13.02;75.73
24045;BME280;26257;49.442;8.422;2022-12-20T14:13:20;100358.69;;;12.96;75.58
24045;BME280;26257;49.442;8.422;2022-12-20T14:15:47;100363.13;;;12.81;77.41
24045;BME280;26257;49.442;8.422;2022-12-20T14:18:19;100360.47;;;13.07;76.30
24045;BME280;26257;49.442;8.422;2022-12-20T14:20:48;100345.44;;;13.18;75.80
24045;BME280;26257;49.442;8.422;2022-12-20T14:23:36;100346.34;;;13.11;75.67
24045;BME280;26257;49.442;8.422;2022-12-20T14:26:03;100334.78;;;13.31;74.23
24045;BME280;26257;49.442;8.422;2022-12-20T14:28:56;100336.53;;;13.38;73.40
24045;BME280;26257;49.442;8.422;2022-12-20T14:31:44;100334.63;;;13.75;71.81
24045;BME280;26257;49.442;8.422;2022-12-20T14:36:45;100332.03;;;13.57;71.76
24045;BME280;26257;49.442;8.422;2022-12-20T14:42:12;100325.03;;;13.38;73.03
24045;BME280;26257;49.442;8.422;2022-12-20T14:44:38;100330.34;;;13.35;73.41
24045;BME280;26257;49.442;8.422;2022-12-20T14:47:26;100325.00;;;13.50;72.81
24045;BME280;26257;49.442;8.422;2022-12-20T14:50:12;100325.91;;;13.41;72.95
24045;BME280;26257;49.442;8.422;2022-12-20T14:52:42;100323.28;;;13.34;73.35
24045;BME280;26257;49.442;8.422;2022-12-20T14:55:18;100319.78;;;13.20;74.46
24045;BME280;26257;49.442;8.422;2022-12-20T14:57:46;100314.50;;;12.83;76.35
24045;BME280;26257;49.442;8.422;2022-12-20T15:08:29;100307.44;;;12.94;75.94
24045;BME280;26257;49.442;8.422;2022-12-20T15:15:58;100333.97;;;12.55;78.60
24045;BME280;26257;49.442;8.422;2022-12-20T15:18:24;100330.44;;;12.47;79.15
24045;BME280;26257;49.442;8.422;2022-12-20T15:21:04;100320.72;;;12.58;79.32
24045;BME280;26257;49.442;8.422;2022-12-20T15:23:31;100316.31;;;12.48;79.85
24045;BME280;26257;49.442;8.422;2022-12-20T15:25:57;100318.94;;;12.53;79.56
24045;BME280;26257;49.442;8.422;2022-12-20T15:28:25;100306.59;;;12.68;78.56
24045;BME280;26257;49.442;8.422;2022-12-20T15:30:52;100308.38;;;12.48;79.10
24045;BME280;26257;49.442;8.422;2022-12-20T15:33:25;100302.16;;;12.49;79.55
24045;BME280;26257;49.442;8.422;2022-12-20T15:35:52;100307.47;;;12.58;79.14
24045;BME280;26257;49.442;8.422;2022-12-20T15:38:21;100298.63;;;12.47;79.54
24045;BME280;26257;49.442;8.422;2022-12-20T15:40:50;100294.22;;;12.40;79.39
24045;BME280;26257;49.442;8.422;2022-12-20T15:43:18;100285.38;;;12.52;80.38
24045;BME280;26257;49.442;8.422;2022-12-20T15:45:47;100289.81;;;12.45;79.87
24045;BME280;26257;49.442;8.422;2022-12-20T15:48:17;100288.91;;;12.28;80.75
24045;BME280;26257;49.442;8.422;2022-12-20T15:50:47;100296.88;;;12.34;80.96
24045;BME280;26257;49.442;8.422;2022-12-20T15:53:15;100293.34;;;12.38;80.05
24045;BME280;26257;49.442;8.422;2022-12-20T15:55:42;100284.50;;;12.27;81.10
24045;BME280;26257;49.442;8.422;2022-12-20T15:58:08;100288.03;;;12.11;82.37
24045;BME280;26257;49.442;8.422;2022-12-20T16:00:38;100294.19;;;12.28;82.24
24045;BME280;26257;49.442;8.422;2022-12-20T16:03:15;100274.78;;;12.12;82.74
24045;BME280;26257;49.442;8.422;2022-12-20T16:05:41;100279.19;;;12.18;82.20
24045;BME280;26257;49.442;8.422;2022-12-20T16:08:06;100278.34;;;12.25;81.42
24045;BME280;26257;49.442;8.422;2022-12-20T16:10:32;100284.53;;;12.22;81.84
24045;BME280;26257;49.442;8.422;2022-12-20T16:12:58;100282.72;;;12.05;82.89
24045;BME280;26257;49.442;8.422;2022-12-20T16:15:23;100283.63;;;12.22;81.76
24045;BME280;26257;49.442;8.422;2022-12-20T16:17:50;100293.34;;;12.30;81.51
24045;BME280;26257;49.442;8.422;2022-12-20T16:20:15;100293.34;;;12.44;80.41